Other Surface Observations
Issued by NWS Great Falls, MT

Home | Current Version | Previous Version | Graphics & Text | Print | Product List | Glossary On
Versions: 1 2 3 4 5 6 7 8 9 10 11 12 13 14 15 16 17 18 19 20 21 22 23 24 25 26 27 28 29 30 31 32 33 34 35 36 37 38 39 40 41 42 43 44 45 46 47 48 49 50
000
SXUS55 KTFX 051414
OSOTFX
AREA AWOS OBSERVATIONS
NATIONAL WEATHER SERVICE GREAT FALLS MT
0714 AM MST MON DEC 05 2016

METAR KPWD 051415Z AUTO 32024G30KT 1/2SM M07/M07 A2958 RMK PLENTYWOOD
METAR KPO1 051415Z AUTO 33020G30KT 4SM M05/M08 A2967 RMK POPLAR
METAR K1S3 051415Z AUTO 30012G16KT 10SM M04/M08 A2978 RMK FORSYTH
METAR KS71 051415Z AUTO 27018G25KT 10SM M09/M13 A2992 RMK CHINOOK
METAR K38S 051415Z AUTO 00000KT 10SM M08/M14 A2989 RMK DEER LODGE
METAR K3U3 051415Z AUTO 25010KT 10SM M09/M16 A2986 RMK ANACONDA
METAR K6S5 051415Z AUTO 08003KT 10SM M05/M15 A2997 RMK HAMILTON
METAR KS59 051415Z AUTO 00000KT 10SM M08/M09 A2996 RMK LIBBY
METAR K88M 051415Z AUTO 13007KT 1 1/4SM M04/M06 A2992 RMK EUREKA



USA.gov is the U.S. government's official web portal to all federal, state and local government web resources and services.